createdAt,value
2022-07-29T00:00:15.285Z,20.90
2022-07-29T00:02:42.309Z,20.80
2022-07-29T00:05:10.965Z,20.80
2022-07-29T00:07:37.973Z,20.80
2022-07-29T00:10:05.654Z,20.70
2022-07-29T00:12:32.695Z,20.70
2022-07-29T00:14:59.637Z,20.70
2022-07-29T00:17:26.805Z,20.70
2022-07-29T00:19:54.130Z,20.50
2022-07-29T00:22:21.932Z,20.50
2022-07-29T00:24:50.871Z,20.40
2022-07-29T00:27:19.087Z,20.40
2022-07-29T00:29:46.488Z,20.40
2022-07-29T00:32:13.419Z,20.30
2022-07-29T00:34:59.180Z,20.30
2022-07-29T00:37:26.378Z,20.30
2022-07-29T00:39:53.419Z,20.20
2022-07-29T00:42:21.043Z,20.20
2022-07-29T00:44:48.256Z,20.20
2022-07-29T00:47:15.713Z,20.10
2022-07-29T00:49:43.608Z,20.10
2022-07-29T00:52:12.356Z,20.10
2022-07-29T00:54:44.820Z,20.10
2022-07-29T00:57:13.721Z,20.00
2022-07-29T00:59:41.268Z,20.00
2022-07-29T01:02:08.297Z,19.90
2022-07-29T01:04:35.612Z,19.80
2022-07-29T01:07:04.050Z,19.80
2022-07-29T01:09:40.844Z,19.80
2022-07-29T01:12:24.513Z,19.70
2022-07-29T01:14:52.604Z,19.70
2022-07-29T01:17:27.445Z,19.60
2022-07-29T01:20:02.346Z,19.50
2022-07-29T01:22:35.797Z,19.60
2022-07-29T01:25:07.237Z,19.60
2022-07-29T01:28:05.113Z,19.50
2022-07-29T01:30:36.089Z,19.50
2022-07-29T01:33:32.728Z,19.60
2022-07-29T01:36:02.895Z,19.60
2022-07-29T01:38:30.612Z,19.60
2022-07-29T01:41:07.405Z,19.50
2022-07-29T01:43:42.618Z,19.40
2022-07-29T01:46:22.851Z,19.20
2022-07-29T01:49:08.095Z,19.20
2022-07-29T01:51:45.184Z,19.20
2022-07-29T01:54:20.148Z,19.30
2022-07-29T01:56:51.242Z,19.20
2022-07-29T01:59:20.076Z,19.20
2022-07-29T02:01:50.911Z,19.20
2022-07-29T02:04:28.885Z,19.20
2022-07-29T02:07:03.377Z,19.10
2022-07-29T02:09:33.263Z,19.10
2022-07-29T02:12:02.461Z,19.00
2022-07-29T02:14:38.568Z,19.00
2022-07-29T02:17:06.558Z,19.00
2022-07-29T02:19:35.702Z,19.00
2022-07-29T02:22:03.288Z,18.90
2022-07-29T02:24:31.925Z,18.90
2022-07-29T02:27:01.959Z,18.80
2022-07-29T02:29:31.650Z,18.80
2022-07-29T02:32:00.695Z,18.80
2022-07-29T02:34:29.427Z,18.70
2022-07-29T02:36:57.498Z,18.70
2022-07-29T02:39:26.897Z,18.60
2022-07-29T02:42:00.609Z,18.60
2022-07-29T02:44:32.639Z,18.50
2022-07-29T02:47:23.508Z,18.50
2022-07-29T02:50:28.581Z,18.50
2022-07-29T02:53:04.502Z,18.50
2022-07-29T02:56:14.071Z,18.50
2022-07-29T02:58:56.697Z,18.30
2022-07-29T03:01:29.243Z,18.30
2022-07-29T03:03:57.012Z,18.30
2022-07-29T03:06:31.117Z,18.30
2022-07-29T03:09:12.903Z,18.20
2022-07-29T03:11:49.443Z,18.20
2022-07-29T03:14:21.724Z,18.20
2022-07-29T03:16:50.997Z,18.10
2022-07-29T03:19:19.305Z,18.10
2022-07-29T03:21:46.444Z,18.10
2022-07-29T03:24:27.649Z,18.00
2022-07-29T03:26:57.476Z,17.90
2022-07-29T03:29:25.017Z,17.90
2022-07-29T03:32:00.620Z,17.80
2022-07-29T03:34:29.589Z,17.70
2022-07-29T03:36:56.465Z,17.60
2022-07-29T03:39:27.833Z,17.60
2022-07-29T03:41:58.520Z,17.60
2022-07-29T03:44:28.543Z,17.60
2022-07-29T03:46:59.513Z,17.60
2022-07-29T03:49:27.985Z,17.50
2022-07-29T03:51:55.679Z,17.50
2022-07-29T03:54:23.442Z,17.50
2022-07-29T03:56:53.822Z,17.50
2022-07-29T03:59:22.405Z,17.40
2022-07-29T04:01:51.669Z,17.40
2022-07-29T04:04:19.233Z,17.30
2022-07-29T04:06:48.173Z,17.30
2022-07-29T04:09:15.846Z,17.30
2022-07-29T04:12:01.840Z,17.10
2022-07-29T04:14:34.736Z,17.00
2022-07-29T04:17:06.040Z,17.00
2022-07-29T04:19:33.420Z,17.00
2022-07-29T04:22:01.798Z,16.90
2022-07-29T04:24:29.427Z,16.70
2022-07-29T04:26:56.535Z,16.70
2022-07-29T04:29:23.610Z,16.70
2022-07-29T04:31:50.508Z,16.60
2022-07-29T04:34:18.117Z,16.60
2022-07-29T04:36:45.776Z,16.60
2022-07-29T04:39:12.713Z,16.70
2022-07-29T04:41:39.702Z,16.70
2022-07-29T04:44:07.427Z,16.60
2022-07-29T04:46:37.113Z,16.40
2022-07-29T04:49:04.751Z,16.40
2022-07-29T04:51:32.082Z,16.50
2022-07-29T04:53:59.471Z,16.50
2022-07-29T04:56:26.506Z,16.50
2022-07-29T04:58:54.031Z,16.50
2022-07-29T05:01:21.204Z,16.40
2022-07-29T05:03:48.297Z,16.50
2022-07-29T05:06:15.593Z,16.40
2022-07-29T05:08:42.563Z,16.40
2022-07-29T05:11:12.057Z,16.30
2022-07-29T05:13:45.014Z,16.40
2022-07-29T05:16:14.267Z,16.40
2022-07-29T05:18:42.127Z,16.50
2022-07-29T05:21:09.082Z,16.50
2022-07-29T05:23:38.422Z,16.50
2022-07-29T05:26:05.591Z,16.50
2022-07-29T05:28:36.315Z,16.50
2022-07-29T05:31:03.622Z,16.50
2022-07-29T05:33:34.737Z,16.50
2022-07-29T05:36:06.614Z,16.40
2022-07-29T05:38:34.819Z,16.50
2022-07-29T05:41:01.844Z,16.50
2022-07-29T05:43:30.092Z,16.50
2022-07-29T05:45:57.836Z,16.40
2022-07-29T05:48:25.455Z,16.50
2022-07-29T05:50:52.531Z,16.50
2022-07-29T05:53:20.774Z,16.50
2022-07-29T05:55:49.288Z,16.50
2022-07-29T05:58:16.307Z,16.50
2022-07-29T06:00:43.533Z,16.50
2022-07-29T06:03:11.176Z,16.50
2022-07-29T06:05:38.430Z,16.50
2022-07-29T06:08:08.861Z,16.50
2022-07-29T06:10:36.912Z,16.50
2022-07-29T06:13:04.332Z,16.50
2022-07-29T06:15:31.434Z,16.50
2022-07-29T06:18:00.685Z,16.60
2022-07-29T06:20:32.848Z,16.60
2022-07-29T06:23:00.764Z,16.60
2022-07-29T06:25:31.834Z,16.70
2022-07-29T06:27:59.209Z,16.60
2022-07-29T06:30:26.262Z,16.70
2022-07-29T06:32:53.623Z,16.70
2022-07-29T06:35:40.927Z,16.70
2022-07-29T06:38:12.068Z,16.80
2022-07-29T06:41:06.973Z,16.80
2022-07-29T06:43:42.658Z,16.80
2022-07-29T06:46:19.826Z,16.90
2022-07-29T06:48:48.601Z,16.90
2022-07-29T06:51:16.291Z,16.90
2022-07-29T06:54:00.094Z,17.00
2022-07-29T06:56:39.303Z,17.00
2022-07-29T06:59:08.870Z,17.10
2022-07-29T07:01:40.991Z,17.10
2022-07-29T07:04:09.808Z,17.20
2022-07-29T07:06:37.791Z,17.20
2022-07-29T07:09:05.284Z,17.20
2022-07-29T07:11:33.748Z,17.30
2022-07-29T07:14:03.742Z,17.40
2022-07-29T07:16:32.086Z,17.40
2022-07-29T07:18:59.157Z,17.50
2022-07-29T07:21:26.098Z,17.50
2022-07-29T07:23:57.031Z,17.50
2022-07-29T07:26:24.102Z,17.60
2022-07-29T07:28:51.146Z,17.60
2022-07-29T07:31:18.611Z,17.70
2022-07-29T07:33:45.997Z,17.70
2022-07-29T07:36:13.046Z,17.90
2022-07-29T07:38:40.000Z,17.90
2022-07-29T07:41:07.119Z,18.00
2022-07-29T07:43:34.072Z,18.00
2022-07-29T07:46:01.076Z,18.10
2022-07-29T07:48:28.057Z,18.20
2022-07-29T07:50:55.020Z,18.20
2022-07-29T07:53:22.893Z,18.20
2022-07-29T07:58:37.227Z,18.30
2022-07-29T08:01:04.608Z,18.30
2022-07-29T08:03:31.604Z,18.40
2022-07-29T08:05:58.730Z,18.40
2022-07-29T08:08:25.782Z,18.40
2022-07-29T08:10:57.068Z,18.50
2022-07-29T08:13:29.311Z,18.60
2022-07-29T08:16:01.435Z,18.80
2022-07-29T08:18:30.447Z,18.80
2022-07-29T08:20:58.359Z,19.00
2022-07-29T08:23:25.664Z,19.10
2022-07-29T08:25:54.907Z,19.40
2022-07-29T08:28:22.158Z,19.60
2022-07-29T08:30:53.265Z,19.90
2022-07-29T08:33:20.223Z,20.20
2022-07-29T08:35:47.220Z,20.60
2022-07-29T08:38:14.339Z,20.80
2022-07-29T08:40:41.374Z,21.00
2022-07-29T08:43:09.809Z,21.30
2022-07-29T08:45:52.006Z,21.50
2022-07-29T08:48:24.768Z,21.70
2022-07-29T08:50:57.695Z,22.00
2022-07-29T08:53:28.046Z,22.00
2022-07-29T08:55:56.155Z,22.20
2022-07-29T08:58:25.602Z,22.30
2022-07-29T09:00:58.155Z,22.50
2022-07-29T09:03:31.453Z,22.60
2022-07-29T09:06:00.382Z,22.60
2022-07-29T09:08:28.216Z,22.70
2022-07-29T09:10:59.507Z,22.80
2022-07-29T09:13:27.093Z,22.90
2022-07-29T09:15:54.939Z,22.90
2022-07-29T09:18:46.621Z,23.00
2022-07-29T09:21:36.270Z,23.10
2022-07-29T09:24:13.309Z,23.20
2022-07-29T09:26:43.246Z,23.50
2022-07-29T09:29:22.123Z,23.70
2022-07-29T09:31:53.048Z,23.70
2022-07-29T09:34:29.458Z,23.70
2022-07-29T09:36:57.090Z,23.90
2022-07-29T09:39:33.385Z,23.70
2022-07-29T09:42:04.189Z,23.60
2022-07-29T09:44:51.668Z,23.50
2022-07-29T09:47:20.308Z,23.70
2022-07-29T09:50:00.410Z,23.80
2022-07-29T09:52:30.182Z,23.60
2022-07-29T09:55:08.901Z,23.60
2022-07-29T09:57:38.687Z,23.60
2022-07-29T10:00:16.971Z,23.80
2022-07-29T10:02:47.028Z,23.80
2022-07-29T10:05:36.315Z,24.00
2022-07-29T10:08:04.492Z,24.10
2022-07-29T10:10:35.413Z,24.10
2022-07-29T10:13:16.508Z,24.00
2022-07-29T10:15:46.353Z,24.00
2022-07-29T10:18:18.561Z,24.00
2022-07-29T10:20:46.263Z,24.00
2022-07-29T10:23:13.727Z,24.10
2022-07-29T10:25:46.062Z,24.00
2022-07-29T10:28:16.546Z,24.00
2022-07-29T10:30:45.553Z,24.20
2022-07-29T10:33:28.192Z,24.20
2022-07-29T10:36:34.683Z,24.20
2022-07-29T10:39:05.744Z,24.30
2022-07-29T10:42:20.050Z,24.40
2022-07-29T10:44:48.039Z,24.40
2022-07-29T10:47:27.331Z,24.40
2022-07-29T10:50:04.399Z,24.50
2022-07-29T10:52:50.141Z,24.70
2022-07-29T10:55:43.235Z,24.70
2022-07-29T10:58:17.971Z,24.80
2022-07-29T11:00:46.692Z,24.80
2022-07-29T11:03:57.199Z,25.00
2022-07-29T11:06:34.211Z,25.10
2022-07-29T11:09:25.932Z,25.20
2022-07-29T11:12:25.505Z,25.30
2022-07-29T11:14:53.573Z,25.30
2022-07-29T11:17:21.015Z,25.40
2022-07-29T11:22:45.993Z,25.50
2022-07-29T11:25:17.020Z,25.70
2022-07-29T11:27:46.141Z,25.80
2022-07-29T11:30:14.550Z,25.90
2022-07-29T11:32:48.554Z,26.00
2022-07-29T11:35:37.998Z,26.10
2022-07-29T11:38:28.553Z,26.00
2022-07-29T11:41:30.191Z,26.10
2022-07-29T11:44:00.822Z,26.10
2022-07-29T11:46:49.882Z,26.20
2022-07-29T11:49:32.224Z,26.40
2022-07-29T11:52:04.207Z,26.50
2022-07-29T11:54:38.893Z,26.50
2022-07-29T11:57:22.290Z,26.60
2022-07-29T11:59:50.779Z,26.70
2022-07-29T12:05:10.697Z,27.00
2022-07-29T12:07:39.497Z,27.10
2022-07-29T12:10:11.486Z,27.30
2022-07-29T12:12:53.779Z,27.30
2022-07-29T12:15:22.353Z,27.50
2022-07-29T12:17:49.824Z,27.50
2022-07-29T12:20:30.688Z,27.60
2022-07-29T12:22:58.018Z,27.70
2022-07-29T12:25:33.980Z,28.00
2022-07-29T12:28:04.373Z,28.10
2022-07-29T12:30:43.116Z,28.00
2022-07-29T12:33:28.562Z,28.00
2022-07-29T12:36:09.461Z,28.00
2022-07-29T12:38:41.636Z,28.20
2022-07-29T12:41:08.831Z,28.20
2022-07-29T12:43:36.146Z,28.30
2022-07-29T12:46:23.555Z,28.50
2022-07-29T12:48:56.075Z,28.70
2022-07-29T12:51:40.527Z,28.80
2022-07-29T12:54:16.287Z,28.70
2022-07-29T12:56:45.658Z,28.90
2022-07-29T12:59:23.287Z,28.90
2022-07-29T13:01:52.965Z,28.90
2022-07-29T13:04:32.374Z,29.00
2022-07-29T13:07:10.378Z,29.10
2022-07-29T13:09:46.566Z,29.30
2022-07-29T13:12:14.666Z,29.50
2022-07-29T13:14:49.950Z,29.60
2022-07-29T13:17:19.087Z,29.70
2022-07-29T13:19:52.437Z,29.80
2022-07-29T13:22:26.150Z,29.70
2022-07-29T13:24:55.547Z,30.00
2022-07-29T13:27:25.867Z,30.20
2022-07-29T13:29:54.233Z,30.30
2022-07-29T13:32:28.210Z,30.40
2022-07-29T13:35:05.418Z,30.50
2022-07-29T13:37:35.808Z,30.60
2022-07-29T13:40:05.158Z,30.70
2022-07-29T13:42:33.400Z,30.60
2022-07-29T13:45:01.445Z,30.80
2022-07-29T13:47:32.703Z,30.60
2022-07-29T13:50:02.069Z,30.80
2022-07-29T13:52:29.775Z,30.80
2022-07-29T13:54:57.262Z,31.00
2022-07-29T13:57:24.297Z,31.10
2022-07-29T13:59:54.455Z,31.20
2022-07-29T14:02:25.730Z,31.30
2022-07-29T14:04:56.878Z,31.40
2022-07-29T14:07:24.503Z,31.30
2022-07-29T14:09:51.971Z,31.40
2022-07-29T14:12:20.012Z,31.50
2022-07-29T14:14:47.378Z,31.70
2022-07-29T14:17:15.341Z,31.90
2022-07-29T14:19:42.800Z,31.90
2022-07-29T14:22:10.933Z,32.00
2022-07-29T14:24:38.860Z,32.20
2022-07-29T14:27:07.347Z,32.30
2022-07-29T14:29:37.228Z,32.70
2022-07-29T14:32:11.158Z,32.60
2022-07-29T14:34:39.558Z,32.50
2022-07-29T14:37:08.196Z,32.70
2022-07-29T14:39:42.835Z,32.60
2022-07-29T14:42:11.603Z,33.00
2022-07-29T14:44:42.537Z,33.20
2022-07-29T14:47:10.140Z,33.40
2022-07-29T14:49:37.204Z,33.40
2022-07-29T14:52:04.897Z,33.10
2022-07-29T14:54:31.827Z,33.20
2022-07-29T14:56:58.949Z,33.30
2022-07-29T14:59:27.208Z,33.60
2022-07-29T15:01:54.304Z,33.80
2022-07-29T15:04:22.118Z,33.70
2022-07-29T15:06:49.443Z,33.60
2022-07-29T15:09:16.463Z,33.50
2022-07-29T15:11:43.451Z,33.50
2022-07-29T15:14:10.694Z,33.90
2022-07-29T15:16:39.302Z,34.10
2022-07-29T15:19:09.860Z,34.10
2022-07-29T15:21:48.003Z,34.30
2022-07-29T15:24:19.816Z,34.30
2022-07-29T15:26:48.285Z,34.20
2022-07-29T15:29:16.360Z,34.00
2022-07-29T15:31:44.599Z,34.30
2022-07-29T15:34:11.790Z,34.50
2022-07-29T15:36:54.433Z,34.40
2022-07-29T15:39:23.066Z,34.60
2022-07-29T15:41:50.927Z,34.90
2022-07-29T15:44:18.995Z,35.00
2022-07-29T15:47:04.535Z,35.10
2022-07-29T15:49:47.081Z,35.00
2022-07-29T15:52:25.066Z,35.20
2022-07-29T15:54:55.281Z,35.30
2022-07-29T15:57:22.916Z,35.10
2022-07-29T15:59:50.355Z,35.30
2022-07-29T16:02:17.817Z,35.20
2022-07-29T16:04:44.983Z,35.10
2022-07-29T16:07:11.998Z,35.20
2022-07-29T16:09:38.952Z,35.20
2022-07-29T16:12:14.657Z,35.50
2022-07-29T16:14:44.399Z,35.60
2022-07-29T16:17:14.354Z,35.30
2022-07-29T16:19:43.512Z,35.40
2022-07-29T16:22:11.811Z,35.50
2022-07-29T16:24:39.481Z,35.10
2022-07-29T16:27:07.619Z,35.00
2022-07-29T16:29:34.810Z,34.90
2022-07-29T16:32:01.982Z,35.10
2022-07-29T16:34:29.667Z,35.20
2022-07-29T16:36:56.580Z,35.10
2022-07-29T16:39:23.500Z,34.90
2022-07-29T16:41:50.724Z,35.20
2022-07-29T16:44:17.915Z,35.20
2022-07-29T16:46:45.573Z,35.40
2022-07-29T16:49:12.842Z,35.40
2022-07-29T16:51:47.770Z,35.40
2022-07-29T16:54:14.843Z,35.50
2022-07-29T16:56:41.869Z,35.40
2022-07-29T16:59:08.811Z,35.60
2022-07-29T17:01:35.795Z,35.80
2022-07-29T17:04:08.791Z,36.00
2022-07-29T17:06:41.047Z,35.90
2022-07-29T17:09:10.401Z,36.00
2022-07-29T17:11:52.882Z,36.00
2022-07-29T17:14:25.030Z,35.90
2022-07-29T17:17:00.973Z,36.00
2022-07-29T17:19:33.958Z,35.30
2022-07-29T17:22:15.884Z,35.50
2022-07-29T17:24:46.085Z,35.50
2022-07-29T17:27:13.052Z,35.10
2022-07-29T17:29:41.567Z,35.10
2022-07-29T17:32:11.334Z,35.10
2022-07-29T17:34:41.680Z,35.10
2022-07-29T17:37:10.812Z,34.90
2022-07-29T17:39:42.818Z,34.90
2022-07-29T17:42:12.796Z,34.80
2022-07-29T17:44:40.744Z,34.80
2022-07-29T17:47:15.702Z,34.80
2022-07-29T17:49:45.157Z,34.50
2022-07-29T17:52:12.109Z,34.30
2022-07-29T17:54:39.064Z,34.20
2022-07-29T17:57:06.067Z,33.80
2022-07-29T17:59:33.067Z,33.90
2022-07-29T18:02:00.607Z,33.90
2022-07-29T18:04:28.717Z,33.80
2022-07-29T18:06:56.133Z,33.40
2022-07-29T18:09:23.163Z,33.40
2022-07-29T18:11:50.137Z,33.40
2022-07-29T18:14:17.529Z,33.40
2022-07-29T18:16:44.511Z,33.50
2022-07-29T18:19:12.009Z,33.40
2022-07-29T18:21:51.455Z,33.20
2022-07-29T18:24:27.623Z,33.20
2022-07-29T18:26:54.948Z,33.10
2022-07-29T18:29:21.956Z,32.90
2022-07-29T18:31:49.000Z,32.90
2022-07-29T18:34:17.422Z,32.80
2022-07-29T18:36:45.903Z,32.40
2022-07-29T18:39:13.206Z,32.60
2022-07-29T18:41:50.740Z,32.80
2022-07-29T18:44:22.840Z,32.50
2022-07-29T18:46:51.941Z,32.30
2022-07-29T18:49:19.571Z,32.20
2022-07-29T18:51:46.627Z,31.80
2022-07-29T18:54:13.702Z,31.30
2022-07-29T18:56:40.691Z,31.20
2022-07-29T18:59:08.194Z,31.10
2022-07-29T19:01:35.484Z,31.20
2022-07-29T19:04:02.593Z,31.00
2022-07-29T19:06:30.050Z,31.00
2022-07-29T19:08:57.180Z,31.00
2022-07-29T19:11:24.096Z,30.80
2022-07-29T19:13:51.069Z,30.60
2022-07-29T19:16:18.561Z,30.60
2022-07-29T19:18:47.416Z,30.30
2022-07-29T19:21:14.379Z,30.20
2022-07-29T19:24:00.087Z,29.80
2022-07-29T19:26:29.593Z,29.70
2022-07-29T19:28:56.525Z,29.80
2022-07-29T19:31:23.523Z,29.50
2022-07-29T19:33:50.574Z,29.40
2022-07-29T19:36:17.547Z,29.30
2022-07-29T19:38:44.590Z,29.40
2022-07-29T19:41:13.042Z,29.20
2022-07-29T19:43:50.526Z,29.20
2022-07-29T19:46:19.348Z,29.20
2022-07-29T19:48:46.428Z,29.20
2022-07-29T19:51:13.428Z,28.80
2022-07-29T19:53:40.669Z,28.70
2022-07-29T19:56:08.965Z,28.50
2022-07-29T19:58:36.467Z,28.40
2022-07-29T20:01:10.415Z,28.50
2022-07-29T20:03:41.158Z,28.40
2022-07-29T20:06:08.603Z,28.40
2022-07-29T20:08:35.599Z,28.30
2022-07-29T20:11:03.944Z,28.00
2022-07-29T20:13:33.154Z,28.20
2022-07-29T20:16:01.913Z,28.10
2022-07-29T20:18:29.082Z,27.90
2022-07-29T20:20:57.523Z,27.90
2022-07-29T20:23:24.763Z,27.80
2022-07-29T20:25:51.869Z,27.80
2022-07-29T20:28:18.902Z,27.60
2022-07-29T20:30:47.512Z,27.70
2022-07-29T20:33:15.166Z,27.60
2022-07-29T20:35:42.167Z,27.50
2022-07-29T20:38:09.402Z,27.30
2022-07-29T20:40:36.486Z,27.30
2022-07-29T20:43:03.470Z,27.10
2022-07-29T20:45:30.468Z,26.90
2022-07-29T20:47:58.478Z,26.80
2022-07-29T20:50:25.412Z,26.80
2022-07-29T20:52:53.090Z,26.70
2022-07-29T20:55:20.799Z,26.30
2022-07-29T20:57:47.752Z,25.80
2022-07-29T21:00:15.256Z,25.80
2022-07-29T21:02:42.436Z,25.90
2022-07-29T21:05:09.857Z,25.90
2022-07-29T21:07:36.906Z,25.90
2022-07-29T21:10:05.131Z,25.90
2022-07-29T21:12:33.543Z,25.90
2022-07-29T21:15:04.002Z,25.90
2022-07-29T21:17:35.207Z,25.90
2022-07-29T21:20:05.405Z,25.80
2022-07-29T21:22:32.596Z,25.60
2022-07-29T21:24:59.857Z,25.40
2022-07-29T21:27:45.264Z,25.30
2022-07-29T21:30:14.988Z,25.30
2022-07-29T21:32:42.113Z,25.20
2022-07-29T21:35:18.317Z,25.00
2022-07-29T21:37:56.682Z,25.00
2022-07-29T21:40:23.968Z,25.00
2022-07-29T21:42:52.551Z,24.90
2022-07-29T21:45:19.499Z,24.80
2022-07-29T21:47:46.538Z,24.80
2022-07-29T21:50:13.430Z,24.60
2022-07-29T21:52:40.394Z,24.60
2022-07-29T21:55:08.088Z,24.40
2022-07-29T21:57:37.592Z,24.30
2022-07-29T22:00:07.819Z,24.20
2022-07-29T22:02:35.068Z,24.20
2022-07-29T22:05:02.200Z,24.10
2022-07-29T22:07:55.620Z,24.10
2022-07-29T22:10:16.668Z,24.10
2022-07-29T22:12:43.645Z,23.90
2022-07-29T22:15:11.525Z,23.70
2022-07-29T22:17:40.175Z,23.70
2022-07-29T22:20:07.801Z,23.50
2022-07-29T22:22:35.243Z,23.40
2022-07-29T22:25:03.803Z,23.40
2022-07-29T22:27:30.990Z,23.20
2022-07-29T22:29:58.767Z,23.20
2022-07-29T22:32:25.849Z,23.20
2022-07-29T22:34:52.775Z,23.20
2022-07-29T22:37:19.825Z,23.20
2022-07-29T22:39:46.726Z,23.10
2022-07-29T22:42:13.624Z,23.00
2022-07-29T22:44:40.646Z,22.90
2022-07-29T22:47:07.989Z,22.80
2022-07-29T22:49:34.998Z,22.80
2022-07-29T22:52:02.247Z,22.80
2022-07-29T22:54:29.250Z,22.80
2022-07-29T22:56:57.200Z,22.80
2022-07-29T22:59:24.376Z,22.70
2022-07-29T23:01:51.305Z,22.60
2022-07-29T23:04:18.225Z,22.50
2022-07-29T23:06:45.131Z,22.20
2022-07-29T23:09:12.085Z,22.20
2022-07-29T23:11:38.971Z,22.20
2022-07-29T23:14:06.023Z,22.10
2022-07-29T23:16:36.610Z,22.00
2022-07-29T23:19:03.643Z,22.00
2022-07-29T23:21:30.558Z,21.80
2022-07-29T23:23:57.454Z,21.80
2022-07-29T23:26:24.338Z,21.70
2022-07-29T23:28:51.265Z,21.60
2022-07-29T23:31:19.064Z,21.50
2022-07-29T23:33:46.107Z,21.30
2022-07-29T23:36:13.144Z,21.40
2022-07-29T23:38:41.085Z,21.40
2022-07-29T23:41:09.950Z,21.30
2022-07-29T23:43:37.855Z,21.10
2022-07-29T23:46:06.405Z,21.20
2022-07-29T23:48:34.218Z,21.10
2022-07-29T23:51:02.689Z,21.10
2022-07-29T23:53:29.718Z,21.10
2022-07-29T23:55:57.450Z,21.10
2022-07-29T23:58:24.396Z,21.10
